sensor_id;sensor_type;location;lat;lon;timestamp;P1;durP1;ratioP1;P2;durP2;ratioP2
70981;SDS011;58640;51.320;9.456;2022-07-31T00:01:39;9.38;;;5.80;;
70981;SDS011;58640;51.320;9.456;2022-07-31T00:04:04;8.07;;;6.90;;
70981;SDS011;58640;51.320;9.456;2022-07-31T00:06:29;7.32;;;6.03;;
70981;SDS011;58640;51.320;9.456;2022-07-31T00:08:55;6.85;;;6.20;;
70981;SDS011;58640;51.320;9.456;2022-07-31T00:11:20;9.40;;;6.90;;
70981;SDS011;58640;51.320;9.456;2022-07-31T00:13:45;7.45;;;6.68;;
70981;SDS011;58640;51.320;9.456;2022-07-31T00:16:11;11.98;;;6.70;;
70981;SDS011;58640;51.320;9.456;2022-07-31T00:18:36;9.50;;;6.30;;
70981;SDS011;58640;51.320;9.456;2022-07-31T00:21:02;7.97;;;6.57;;
70981;SDS011;58640;51.320;9.456;2022-07-31T00:23:28;7.65;;;6.25;;
70981;SDS011;58640;51.320;9.456;2022-07-31T00:25:54;7.40;;;6.70;;
70981;SDS011;58640;51.320;9.456;2022-07-31T00:28:19;9.50;;;7.53;;
70981;SDS011;58640;51.320;9.456;2022-07-31T00:30:45;7.07;;;6.38;;
70981;SDS011;58640;51.320;9.456;2022-07-31T00:33:10;9.23;;;6.70;;
70981;SDS011;58640;51.320;9.456;2022-07-31T00:35:36;9.85;;;6.88;;
70981;SDS011;58640;51.320;9.456;2022-07-31T00:38:01;7.85;;;6.75;;
70981;SDS011;58640;51.320;9.456;2022-07-31T00:40:27;10.40;;;6.90;;
70981;SDS011;58640;51.320;9.456;2022-07-31T00:42:52;7.50;;;5.50;;
70981;SDS011;58640;51.320;9.456;2022-07-31T00:45:17;16.23;;;6.63;;
70981;SDS011;58640;51.320;9.456;2022-07-31T00:47:43;8.38;;;6.45;;
70981;SDS011;58640;51.320;9.456;2022-07-31T00:50:09;9.80;;;7.05;;
70981;SDS011;58640;51.320;9.456;2022-07-31T00:52:35;10.30;;;6.68;;
70981;SDS011;58640;51.320;9.456;2022-07-31T00:55:00;8.23;;;6.95;;
70981;SDS011;58640;51.320;9.456;2022-07-31T00:57:25;9.25;;;6.85;;
70981;SDS011;58640;51.320;9.456;2022-07-31T00:59:51;7.70;;;6.30;;
70981;SDS011;58640;51.320;9.456;2022-07-31T01:02:16;7.53;;;6.30;;
70981;SDS011;58640;51.320;9.456;2022-07-31T01:04:41;9.43;;;6.97;;
70981;SDS011;58640;51.320;9.456;2022-07-31T01:07:07;8.05;;;6.47;;
70981;SDS011;58640;51.320;9.456;2022-07-31T01:09:32;9.65;;;6.93;;
70981;SDS011;58640;51.320;9.456;2022-07-31T01:14:27;9.10;;;6.32;;
70981;SDS011;58640;51.320;9.456;2022-07-31T01:16:56;7.47;;;6.68;;
70981;SDS011;58640;51.320;9.456;2022-07-31T01:19:25;9.55;;;6.97;;
70981;SDS011;58640;51.320;9.456;2022-07-31T01:22:16;10.75;;;7.70;;
70981;SDS011;58640;51.320;9.456;2022-07-31T01:30:39;10.50;;;6.95;;
70981;SDS011;58640;51.320;9.456;2022-07-31T01:33:11;13.38;;;7.85;;
70981;SDS011;58640;51.320;9.456;2022-07-31T01:35:44;11.57;;;7.60;;
70981;SDS011;58640;51.320;9.456;2022-07-31T01:38:14;11.27;;;7.68;;
70981;SDS011;58640;51.320;9.456;2022-07-31T01:40:49;15.13;;;8.20;;
70981;SDS011;58640;51.320;9.456;2022-07-31T01:43:20;8.57;;;6.80;;
70981;SDS011;58640;51.320;9.456;2022-07-31T01:45:50;7.80;;;6.85;;
70981;SDS011;58640;51.320;9.456;2022-07-31T01:48:18;7.65;;;6.43;;
70981;SDS011;58640;51.320;9.456;2022-07-31T01:50:45;7.80;;;6.65;;
70981;SDS011;58640;51.320;9.456;2022-07-31T01:53:14;10.27;;;6.60;;
70981;SDS011;58640;51.320;9.456;2022-07-31T01:55:46;8.70;;;6.78;;
70981;SDS011;58640;51.320;9.456;2022-07-31T01:58:14;9.98;;;7.32;;
70981;SDS011;58640;51.320;9.456;2022-07-31T02:00:42;10.50;;;7.32;;
70981;SDS011;58640;51.320;9.456;2022-07-31T02:03:09;7.88;;;6.55;;
70981;SDS011;58640;51.320;9.456;2022-07-31T02:05:37;8.52;;;6.40;;
70981;SDS011;58640;51.320;9.456;2022-07-31T02:08:04;8.18;;;6.45;;
70981;SDS011;58640;51.320;9.456;2022-07-31T02:10:30;11.68;;;6.90;;
70981;SDS011;58640;51.320;9.456;2022-07-31T02:12:57;9.20;;;7.38;;
70981;SDS011;58640;51.320;9.456;2022-07-31T02:15:24;7.05;;;6.32;;
70981;SDS011;58640;51.320;9.456;2022-07-31T02:17:50;11.38;;;6.70;;
70981;SDS011;58640;51.320;9.456;2022-07-31T02:20:18;10.52;;;6.95;;
70981;SDS011;58640;51.320;9.456;2022-07-31T02:22:45;7.30;;;6.43;;
70981;SDS011;58640;51.320;9.456;2022-07-31T02:25:10;10.63;;;6.40;;
70981;SDS011;58640;51.320;9.456;2022-07-31T02:27:37;7.97;;;6.60;;
70981;SDS011;58640;51.320;9.456;2022-07-31T02:30:04;7.60;;;6.70;;
70981;SDS011;58640;51.320;9.456;2022-07-31T02:32:30;10.27;;;6.80;;
70981;SDS011;58640;51.320;9.456;2022-07-31T02:34:58;9.13;;;7.68;;
70981;SDS011;58640;51.320;9.456;2022-07-31T02:37:26;10.25;;;7.45;;
70981;SDS011;58640;51.320;9.456;2022-07-31T02:39:53;9.57;;;7.60;;
70981;SDS011;58640;51.320;9.456;2022-07-31T02:42:20;8.93;;;6.95;;
70981;SDS011;58640;51.320;9.456;2022-07-31T02:44:46;8.45;;;7.47;;
70981;SDS011;58640;51.320;9.456;2022-07-31T02:47:12;9.70;;;7.43;;
70981;SDS011;58640;51.320;9.456;2022-07-31T02:49:39;9.30;;;7.25;;
70981;SDS011;58640;51.320;9.456;2022-07-31T02:52:05;8.23;;;6.97;;
70981;SDS011;58640;51.320;9.456;2022-07-31T02:54:32;10.57;;;7.55;;
70981;SDS011;58640;51.320;9.456;2022-07-31T02:56:59;7.63;;;6.88;;
70981;SDS011;58640;51.320;9.456;2022-07-31T02:59:26;10.43;;;6.88;;
70981;SDS011;58640;51.320;9.456;2022-07-31T03:01:51;10.48;;;7.88;;
70981;SDS011;58640;51.320;9.456;2022-07-31T03:04:18;10.90;;;7.68;;
70981;SDS011;58640;51.320;9.456;2022-07-31T03:06:44;9.35;;;7.18;;
70981;SDS011;58640;51.320;9.456;2022-07-31T03:09:09;10.07;;;7.43;;
70981;SDS011;58640;51.320;9.456;2022-07-31T03:11:35;8.30;;;6.95;;
70981;SDS011;58640;51.320;9.456;2022-07-31T03:14:00;8.70;;;7.43;;
70981;SDS011;58640;51.320;9.456;2022-07-31T03:16:28;9.30;;;7.63;;
70981;SDS011;58640;51.320;9.456;2022-07-31T03:18:55;10.45;;;7.55;;
70981;SDS011;58640;51.320;9.456;2022-07-31T03:21:21;10.05;;;7.43;;
70981;SDS011;58640;51.320;9.456;2022-07-31T03:23:48;7.57;;;6.88;;
70981;SDS011;58640;51.320;9.456;2022-07-31T03:26:14;7.07;;;6.38;;
70981;SDS011;58640;51.320;9.456;2022-07-31T03:28:40;11.82;;;7.60;;
70981;SDS011;58640;51.320;9.456;2022-07-31T03:31:06;6.85;;;6.05;;
70981;SDS011;58640;51.320;9.456;2022-07-31T03:33:32;9.07;;;5.60;;
70981;SDS011;58640;51.320;9.456;2022-07-31T03:35:57;7.10;;;5.57;;
70981;SDS011;58640;51.320;9.456;2022-07-31T03:38:24;6.97;;;4.95;;
70981;SDS011;58640;51.320;9.456;2022-07-31T03:40:49;6.72;;;5.22;;
70981;SDS011;58640;51.320;9.456;2022-07-31T03:43:15;8.30;;;5.82;;
70981;SDS011;58640;51.320;9.456;2022-07-31T03:45:42;6.53;;;5.10;;
70981;SDS011;58640;51.320;9.456;2022-07-31T03:48:08;9.82;;;5.07;;
70981;SDS011;58640;51.320;9.456;2022-07-31T03:50:35;5.82;;;5.22;;
70981;SDS011;58640;51.320;9.456;2022-07-31T03:53:01;7.03;;;5.15;;
70981;SDS011;58640;51.320;9.456;2022-07-31T03:55:28;7.22;;;5.95;;
70981;SDS011;58640;51.320;9.456;2022-07-31T03:57:54;9.15;;;5.80;;
70981;SDS011;58640;51.320;9.456;2022-07-31T04:00:22;6.53;;;5.60;;
70981;SDS011;58640;51.320;9.456;2022-07-31T04:02:51;5.65;;;4.68;;
70981;SDS011;58640;51.320;9.456;2022-07-31T04:05:20;8.65;;;5.55;;
70981;SDS011;58640;51.320;9.456;2022-07-31T04:07:46;9.27;;;5.40;;
70981;SDS011;58640;51.320;9.456;2022-07-31T04:10:11;6.15;;;5.32;;
70981;SDS011;58640;51.320;9.456;2022-07-31T04:12:37;7.43;;;5.03;;
70981;SDS011;58640;51.320;9.456;2022-07-31T04:15:02;7.35;;;5.88;;
70981;SDS011;58640;51.320;9.456;2022-07-31T04:17:28;5.43;;;4.82;;
70981;SDS011;58640;51.320;9.456;2022-07-31T04:19:54;7.35;;;5.45;;
70981;SDS011;58640;51.320;9.456;2022-07-31T04:22:19;5.57;;;5.03;;
70981;SDS011;58640;51.320;9.456;2022-07-31T04:24:44;5.72;;;4.80;;
70981;SDS011;58640;51.320;9.456;2022-07-31T04:27:10;6.25;;;4.88;;
70981;SDS011;58640;51.320;9.456;2022-07-31T04:29:35;9.50;;;5.38;;
70981;SDS011;58640;51.320;9.456;2022-07-31T04:32:00;6.13;;;4.55;;
70981;SDS011;58640;51.320;9.456;2022-07-31T04:34:26;7.68;;;4.75;;
70981;SDS011;58640;51.320;9.456;2022-07-31T04:36:51;7.70;;;5.05;;
70981;SDS011;58640;51.320;9.456;2022-07-31T04:39:17;6.13;;;5.22;;
70981;SDS011;58640;51.320;9.456;2022-07-31T04:41:42;9.35;;;5.38;;
70981;SDS011;58640;51.320;9.456;2022-07-31T04:44:08;8.60;;;5.60;;
70981;SDS011;58640;51.320;9.456;2022-07-31T04:46:34;7.93;;;5.40;;
70981;SDS011;58640;51.320;9.456;2022-07-31T04:48:59;5.25;;;4.70;;
70981;SDS011;58640;51.320;9.456;2022-07-31T04:51:25;6.72;;;4.80;;
70981;SDS011;58640;51.320;9.456;2022-07-31T04:53:50;8.50;;;4.72;;
70981;SDS011;58640;51.320;9.456;2022-07-31T04:56:16;7.38;;;4.68;;
70981;SDS011;58640;51.320;9.456;2022-07-31T04:58:57;5.13;;;4.63;;
70981;SDS011;58640;51.320;9.456;2022-07-31T05:01:24;5.93;;;4.25;;
70981;SDS011;58640;51.320;9.456;2022-07-31T05:03:49;6.22;;;4.88;;
70981;SDS011;58640;51.320;9.456;2022-07-31T05:06:15;8.02;;;4.88;;
70981;SDS011;58640;51.320;9.456;2022-07-31T05:08:40;7.70;;;6.15;;
70981;SDS011;58640;51.320;9.456;2022-07-31T05:11:06;8.85;;;7.05;;
70981;SDS011;58640;51.320;9.456;2022-07-31T05:13:56;14.55;;;7.50;;
70981;SDS011;58640;51.320;9.456;2022-07-31T05:16:23;15.00;;;7.57;;
70981;SDS011;58640;51.320;9.456;2022-07-31T05:18:49;9.85;;;8.13;;
70981;SDS011;58640;51.320;9.456;2022-07-31T05:21:18;11.30;;;7.78;;
70981;SDS011;58640;51.320;9.456;2022-07-31T05:23:45;9.10;;;7.97;;
70981;SDS011;58640;51.320;9.456;2022-07-31T05:26:13;10.32;;;8.45;;
70981;SDS011;58640;51.320;9.456;2022-07-31T05:28:39;9.75;;;8.23;;
70981;SDS011;58640;51.320;9.456;2022-07-31T05:31:06;10.73;;;8.30;;
70981;SDS011;58640;51.320;9.456;2022-07-31T05:33:32;8.85;;;7.95;;
70981;SDS011;58640;51.320;9.456;2022-07-31T05:35:58;8.82;;;7.93;;
70981;SDS011;58640;51.320;9.456;2022-07-31T05:38:24;8.80;;;7.85;;
70981;SDS011;58640;51.320;9.456;2022-07-31T05:40:50;11.32;;;8.23;;
70981;SDS011;58640;51.320;9.456;2022-07-31T05:43:15;14.35;;;8.70;;
70981;SDS011;58640;51.320;9.456;2022-07-31T05:45:41;15.00;;;9.73;;
70981;SDS011;58640;51.320;9.456;2022-07-31T05:48:06;10.98;;;8.10;;
70981;SDS011;58640;51.320;9.456;2022-07-31T05:50:32;11.23;;;7.30;;
70981;SDS011;58640;51.320;9.456;2022-07-31T05:53:00;8.77;;;7.85;;
70981;SDS011;58640;51.320;9.456;2022-07-31T05:55:25;7.35;;;6.70;;
70981;SDS011;58640;51.320;9.456;2022-07-31T05:57:51;9.45;;;7.28;;
70981;SDS011;58640;51.320;9.456;2022-07-31T06:00:17;8.88;;;6.75;;
70981;SDS011;58640;51.320;9.456;2022-07-31T06:02:43;10.85;;;7.15;;
70981;SDS011;58640;51.320;9.456;2022-07-31T06:05:09;9.63;;;6.80;;
70981;SDS011;58640;51.320;9.456;2022-07-31T06:07:34;10.15;;;6.00;;
70981;SDS011;58640;51.320;9.456;2022-07-31T06:10:00;7.70;;;6.80;;
70981;SDS011;58640;51.320;9.456;2022-07-31T06:12:26;6.75;;;5.97;;
70981;SDS011;58640;51.320;9.456;2022-07-31T06:14:51;13.02;;;6.93;;
70981;SDS011;58640;51.320;9.456;2022-07-31T06:17:16;12.85;;;6.20;;
70981;SDS011;58640;51.320;9.456;2022-07-31T06:19:42;10.52;;;6.15;;
70981;SDS011;58640;51.320;9.456;2022-07-31T06:22:08;10.00;;;6.03;;
70981;SDS011;58640;51.320;9.456;2022-07-31T06:24:33;7.72;;;5.43;;
70981;SDS011;58640;51.320;9.456;2022-07-31T06:26:59;8.65;;;5.97;;
70981;SDS011;58640;51.320;9.456;2022-07-31T06:29:25;6.85;;;6.18;;
70981;SDS011;58640;51.320;9.456;2022-07-31T06:31:52;7.88;;;5.60;;
70981;SDS011;58640;51.320;9.456;2022-07-31T06:34:20;8.95;;;5.85;;
70981;SDS011;58640;51.320;9.456;2022-07-31T06:36:46;9.13;;;6.15;;
70981;SDS011;58640;51.320;9.456;2022-07-31T06:39:11;11.02;;;5.63;;
70981;SDS011;58640;51.320;9.456;2022-07-31T06:41:37;6.82;;;5.80;;
70981;SDS011;58640;51.320;9.456;2022-07-31T06:44:08;7.95;;;6.43;;
70981;SDS011;58640;51.320;9.456;2022-07-31T06:46:36;5.35;;;4.85;;
70981;SDS011;58640;51.320;9.456;2022-07-31T06:49:01;8.48;;;5.03;;
70981;SDS011;58640;51.320;9.456;2022-07-31T06:51:27;5.72;;;5.22;;
70981;SDS011;58640;51.320;9.456;2022-07-31T06:53:52;7.43;;;5.15;;
70981;SDS011;58640;51.320;9.456;2022-07-31T06:56:18;10.38;;;5.47;;
70981;SDS011;58640;51.320;9.456;2022-07-31T06:58:43;5.85;;;4.75;;
70981;SDS011;58640;51.320;9.456;2022-07-31T07:01:09;5.45;;;4.95;;
70981;SDS011;58640;51.320;9.456;2022-07-31T07:03:34;5.75;;;4.68;;
70981;SDS011;58640;51.320;9.456;2022-07-31T07:05:59;6.13;;;4.15;;
70981;SDS011;58640;51.320;9.456;2022-07-31T07:08:25;8.68;;;4.43;;
70981;SDS011;58640;51.320;9.456;2022-07-31T07:10:50;6.88;;;4.97;;
70981;SDS011;58640;51.320;9.456;2022-07-31T07:13:15;5.60;;;3.58;;
70981;SDS011;58640;51.320;9.456;2022-07-31T07:15:41;5.78;;;3.92;;
70981;SDS011;58640;51.320;9.456;2022-07-31T07:18:06;3.70;;;3.25;;
70981;SDS011;58640;51.320;9.456;2022-07-31T07:20:32;5.32;;;3.75;;
70981;SDS011;58640;51.320;9.456;2022-07-31T07:22:57;5.93;;;3.90;;
70981;SDS011;58640;51.320;9.456;2022-07-31T07:25:23;5.43;;;3.97;;
70981;SDS011;58640;51.320;9.456;2022-07-31T07:27:49;5.88;;;4.00;;
70981;SDS011;58640;51.320;9.456;2022-07-31T07:30:14;6.18;;;3.80;;
70981;SDS011;58640;51.320;9.456;2022-07-31T07:32:39;15.60;;;4.85;;
70981;SDS011;58640;51.320;9.456;2022-07-31T07:35:05;3.90;;;3.45;;
70981;SDS011;58640;51.320;9.456;2022-07-31T07:37:33;4.28;;;3.88;;
70981;SDS011;58640;51.320;9.456;2022-07-31T07:39:58;9.52;;;3.78;;
70981;SDS011;58640;51.320;9.456;2022-07-31T07:42:23;6.90;;;4.05;;
70981;SDS011;58640;51.320;9.456;2022-07-31T07:44:49;4.80;;;3.63;;
70981;SDS011;58640;51.320;9.456;2022-07-31T07:47:14;3.88;;;3.38;;
70981;SDS011;58640;51.320;9.456;2022-07-31T07:49:39;6.25;;;4.18;;
70981;SDS011;58640;51.320;9.456;2022-07-31T07:52:05;6.85;;;3.97;;
70981;SDS011;58640;51.320;9.456;2022-07-31T07:54:30;3.60;;;3.30;;
70981;SDS011;58640;51.320;9.456;2022-07-31T07:56:56;5.55;;;3.10;;
70981;SDS011;58640;51.320;9.456;2022-07-31T07:59:21;6.05;;;3.45;;
70981;SDS011;58640;51.320;9.456;2022-07-31T08:01:47;5.20;;;3.40;;
70981;SDS011;58640;51.320;9.456;2022-07-31T08:04:12;10.13;;;3.95;;
70981;SDS011;58640;51.320;9.456;2022-07-31T08:06:37;6.63;;;3.25;;
70981;SDS011;58640;51.320;9.456;2022-07-31T08:09:03;6.30;;;3.05;;
70981;SDS011;58640;51.320;9.456;2022-07-31T08:11:28;6.28;;;3.50;;
70981;SDS011;58640;51.320;9.456;2022-07-31T08:13:54;5.43;;;3.33;;
70981;SDS011;58640;51.320;9.456;2022-07-31T08:16:19;3.70;;;3.20;;
70981;SDS011;58640;51.320;9.456;2022-07-31T08:18:46;7.57;;;2.95;;
70981;SDS011;58640;51.320;9.456;2022-07-31T08:21:12;4.75;;;2.65;;
70981;SDS011;58640;51.320;9.456;2022-07-31T08:23:38;6.38;;;2.88;;
70981;SDS011;58640;51.320;9.456;2022-07-31T08:26:03;4.22;;;2.40;;
70981;SDS011;58640;51.320;9.456;2022-07-31T08:28:28;5.50;;;2.33;;
70981;SDS011;58640;51.320;9.456;2022-07-31T08:30:54;5.60;;;2.47;;
70981;SDS011;58640;51.320;9.456;2022-07-31T08:33:19;4.03;;;2.58;;
70981;SDS011;58640;51.320;9.456;2022-07-31T08:35:45;3.20;;;2.42;;
70981;SDS011;58640;51.320;9.456;2022-07-31T08:38:13;2.63;;;2.42;;
70981;SDS011;58640;51.320;9.456;2022-07-31T08:40:39;2.90;;;2.45;;
70981;SDS011;58640;51.320;9.456;2022-07-31T08:43:05;4.32;;;2.35;;
70981;SDS011;58640;51.320;9.456;2022-07-31T08:45:30;2.95;;;2.30;;
70981;SDS011;58640;51.320;9.456;2022-07-31T08:47:56;4.85;;;2.75;;
70981;SDS011;58640;51.320;9.456;2022-07-31T08:50:24;8.10;;;2.80;;
70981;SDS011;58640;51.320;9.456;2022-07-31T08:52:50;2.35;;;2.15;;
70981;SDS011;58640;51.320;9.456;2022-07-31T08:55:21;4.13;;;2.00;;
70981;SDS011;58640;51.320;9.456;2022-07-31T08:57:46;7.57;;;2.40;;
70981;SDS011;58640;51.320;9.456;2022-07-31T09:00:12;2.30;;;2.10;;
70981;SDS011;58640;51.320;9.456;2022-07-31T09:02:41;2.60;;;2.35;;
70981;SDS011;58640;51.320;9.456;2022-07-31T09:05:08;4.78;;;2.80;;
70981;SDS011;58640;51.320;9.456;2022-07-31T09:07:34;5.15;;;2.08;;
70981;SDS011;58640;51.320;9.456;2022-07-31T09:10:00;4.82;;;2.30;;
70981;SDS011;58640;51.320;9.456;2022-07-31T09:12:26;7.00;;;1.98;;
70981;SDS011;58640;51.320;9.456;2022-07-31T09:14:56;2.88;;;1.80;;
70981;SDS011;58640;51.320;9.456;2022-07-31T09:17:32;9.15;;;2.28;;
70981;SDS011;58640;51.320;9.456;2022-07-31T09:20:00;6.03;;;2.22;;
70981;SDS011;58640;51.320;9.456;2022-07-31T09:22:29;2.75;;;2.20;;
70981;SDS011;58640;51.320;9.456;2022-07-31T09:25:05;9.50;;;2.40;;
70981;SDS011;58640;51.320;9.456;2022-07-31T09:27:36;3.65;;;2.30;;
70981;SDS011;58640;51.320;9.456;2022-07-31T09:30:01;3.25;;;2.50;;
70981;SDS011;58640;51.320;9.456;2022-07-31T09:32:28;4.45;;;2.28;;
70981;SDS011;58640;51.320;9.456;2022-07-31T09:34:53;3.33;;;1.90;;
70981;SDS011;58640;51.320;9.456;2022-07-31T09:37:20;4.65;;;1.92;;
70981;SDS011;58640;51.320;9.456;2022-07-31T09:39:50;4.93;;;2.40;;
70981;SDS011;58640;51.320;9.456;2022-07-31T09:42:17;6.25;;;2.53;;
70981;SDS011;58640;51.320;9.456;2022-07-31T09:44:43;4.70;;;2.70;;
70981;SDS011;58640;51.320;9.456;2022-07-31T09:49:51;5.80;;;2.47;;
70981;SDS011;58640;51.320;9.456;2022-07-31T09:52:20;4.68;;;2.28;;
70981;SDS011;58640;51.320;9.456;2022-07-31T09:54:46;7.18;;;2.63;;
70981;SDS011;58640;51.320;9.456;2022-07-31T09:57:13;3.78;;;2.20;;
70981;SDS011;58640;51.320;9.456;2022-07-31T09:59:39;3.20;;;2.10;;
70981;SDS011;58640;51.320;9.456;2022-07-31T10:02:08;8.23;;;2.67;;
70981;SDS011;58640;51.320;9.456;2022-07-31T10:04:37;3.95;;;2.33;;
70981;SDS011;58640;51.320;9.456;2022-07-31T10:07:03;5.43;;;2.17;;
70981;SDS011;58640;51.320;9.456;2022-07-31T10:09:29;4.40;;;2.00;;
70981;SDS011;58640;51.320;9.456;2022-07-31T10:11:56;2.38;;;2.17;;
70981;SDS011;58640;51.320;9.456;2022-07-31T10:14:27;3.67;;;2.60;;
70981;SDS011;58640;51.320;9.456;2022-07-31T10:16:55;8.85;;;2.65;;
70981;SDS011;58640;51.320;9.456;2022-07-31T10:19:23;6.53;;;3.20;;
70981;SDS011;58640;51.320;9.456;2022-07-31T10:21:54;2.40;;;2.20;;
70981;SDS011;58640;51.320;9.456;2022-07-31T10:24:21;6.93;;;2.10;;
70981;SDS011;58640;51.320;9.456;2022-07-31T10:26:49;3.65;;;1.80;;
70981;SDS011;58640;51.320;9.456;2022-07-31T10:29:15;7.10;;;2.00;;
70981;SDS011;58640;51.320;9.456;2022-07-31T10:31:41;3.92;;;2.53;;
70981;SDS011;58640;51.320;9.456;2022-07-31T10:34:07;3.75;;;2.30;;
70981;SDS011;58640;51.320;9.456;2022-07-31T10:36:34;3.80;;;1.90;;
70981;SDS011;58640;51.320;9.456;2022-07-31T10:44:15;2.83;;;2.40;;
70981;SDS011;58640;51.320;9.456;2022-07-31T10:46:46;2.47;;;2.20;;
70981;SDS011;58640;51.320;9.456;2022-07-31T10:49:11;4.45;;;1.67;;
70981;SDS011;58640;51.320;9.456;2022-07-31T10:51:47;5.38;;;2.10;;
70981;SDS011;58640;51.320;9.456;2022-07-31T10:54:13;3.58;;;2.42;;
70981;SDS011;58640;51.320;9.456;2022-07-31T10:56:40;5.40;;;1.90;;
70981;SDS011;58640;51.320;9.456;2022-07-31T10:59:07;3.30;;;1.75;;
70981;SDS011;58640;51.320;9.456;2022-07-31T11:01:43;4.03;;;1.88;;
70981;SDS011;58640;51.320;9.456;2022-07-31T11:04:12;2.38;;;1.75;;
70981;SDS011;58640;51.320;9.456;2022-07-31T11:06:49;3.88;;;2.05;;
70981;SDS011;58640;51.320;9.456;2022-07-31T11:09:22;9.18;;;2.53;;
70981;SDS011;58640;51.320;9.456;2022-07-31T11:11:48;2.60;;;1.70;;
70981;SDS011;58640;51.320;9.456;2022-07-31T11:14:13;4.35;;;1.70;;
70981;SDS011;58640;51.320;9.456;2022-07-31T11:16:57;2.50;;;1.90;;
70981;SDS011;58640;51.320;9.456;2022-07-31T11:19:22;2.90;;;2.13;;
70981;SDS011;58640;51.320;9.456;2022-07-31T11:21:48;2.80;;;1.90;;
70981;SDS011;58640;51.320;9.456;2022-07-31T11:24:17;3.30;;;1.67;;
70981;SDS011;58640;51.320;9.456;2022-07-31T11:26:47;8.43;;;2.00;;
70981;SDS011;58640;51.320;9.456;2022-07-31T11:31:53;1.88;;;1.67;;
70981;SDS011;58640;51.320;9.456;2022-07-31T11:34:18;2.55;;;1.80;;
70981;SDS011;58640;51.320;9.456;2022-07-31T11:36:44;4.25;;;1.85;;
70981;SDS011;58640;51.320;9.456;2022-07-31T11:39:12;2.70;;;1.77;;
70981;SDS011;58640;51.320;9.456;2022-07-31T11:41:38;4.82;;;2.17;;
70981;SDS011;58640;51.320;9.456;2022-07-31T11:44:03;4.68;;;2.30;;
70981;SDS011;58640;51.320;9.456;2022-07-31T11:46:30;2.70;;;1.70;;
70981;SDS011;58640;51.320;9.456;2022-07-31T11:48:58;4.82;;;1.70;;
70981;SDS011;58640;51.320;9.456;2022-07-31T11:51:25;3.67;;;1.80;;
70981;SDS011;58640;51.320;9.456;2022-07-31T11:53:51;9.60;;;1.90;;
70981;SDS011;58640;51.320;9.456;2022-07-31T11:56:19;2.72;;;1.52;;
70981;SDS011;58640;51.320;9.456;2022-07-31T11:58:56;5.53;;;1.38;;
70981;SDS011;58640;51.320;9.456;2022-07-31T12:01:26;2.00;;;1.55;;
70981;SDS011;58640;51.320;9.456;2022-07-31T12:03:53;2.55;;;1.60;;
70981;SDS011;58640;51.320;9.456;2022-07-31T12:06:19;1.77;;;1.40;;
70981;SDS011;58640;51.320;9.456;2022-07-31T12:08:46;1.80;;;1.00;;
70981;SDS011;58640;51.320;9.456;2022-07-31T12:11:12;5.88;;;1.60;;
70981;SDS011;58640;51.320;9.456;2022-07-31T12:13:38;4.45;;;1.67;;
70981;SDS011;58640;51.320;9.456;2022-07-31T12:16:05;1.83;;;1.35;;
70981;SDS011;58640;51.320;9.456;2022-07-31T12:18:45;1.55;;;1.40;;
70981;SDS011;58640;51.320;9.456;2022-07-31T12:21:15;1.77;;;1.15;;
70981;SDS011;58640;51.320;9.456;2022-07-31T12:23:47;3.03;;;1.30;;
70981;SDS011;58640;51.320;9.456;2022-07-31T12:26:21;3.83;;;1.67;;
70981;SDS011;58640;51.320;9.456;2022-07-31T12:29:01;2.92;;;1.50;;
70981;SDS011;58640;51.320;9.456;2022-07-31T12:31:29;2.67;;;1.48;;
70981;SDS011;58640;51.320;9.456;2022-07-31T12:34:08;3.70;;;1.33;;
70981;SDS011;58640;51.320;9.456;2022-07-31T12:36:33;2.75;;;1.30;;
70981;SDS011;58640;51.320;9.456;2022-07-31T12:39:00;2.28;;;1.20;;
70981;SDS011;58640;51.320;9.456;2022-07-31T12:41:27;3.97;;;1.50;;
70981;SDS011;58640;51.320;9.456;2022-07-31T12:43:53;2.40;;;1.55;;
70981;SDS011;58640;51.320;9.456;2022-07-31T12:46:32;12.98;;;1.85;;
70981;SDS011;58640;51.320;9.456;2022-07-31T12:49:00;3.88;;;1.35;;
70981;SDS011;58640;51.320;9.456;2022-07-31T12:51:26;3.67;;;1.50;;
70981;SDS011;58640;51.320;9.456;2022-07-31T12:53:51;2.63;;;1.35;;
70981;SDS011;58640;51.320;9.456;2022-07-31T12:56:16;5.63;;;1.52;;
70981;SDS011;58640;51.320;9.456;2022-07-31T12:58:42;4.43;;;1.55;;
70981;SDS011;58640;51.320;9.456;2022-07-31T13:01:07;1.65;;;1.50;;
70981;SDS011;58640;51.320;9.456;2022-07-31T13:03:32;2.42;;;1.20;;
70981;SDS011;58640;51.320;9.456;2022-07-31T13:05:58;6.97;;;1.80;;
70981;SDS011;58640;51.320;9.456;2022-07-31T13:08:23;2.90;;;1.40;;
70981;SDS011;58640;51.320;9.456;2022-07-31T13:10:48;4.15;;;1.40;;
70981;SDS011;58640;51.320;9.456;2022-07-31T13:13:14;1.77;;;1.58;;
70981;SDS011;58640;51.320;9.456;2022-07-31T13:15:39;2.10;;;1.40;;
70981;SDS011;58640;51.320;9.456;2022-07-31T13:18:04;2.05;;;1.45;;
70981;SDS011;58640;51.320;9.456;2022-07-31T13:20:30;1.60;;;1.42;;
70981;SDS011;58640;51.320;9.456;2022-07-31T13:22:56;2.38;;;1.42;;
70981;SDS011;58640;51.320;9.456;2022-07-31T13:25:23;4.38;;;1.60;;
70981;SDS011;58640;51.320;9.456;2022-07-31T13:27:49;1.83;;;1.40;;
70981;SDS011;58640;51.320;9.456;2022-07-31T13:30:15;4.45;;;2.28;;
70981;SDS011;58640;51.320;9.456;2022-07-31T13:32:41;3.13;;;1.77;;
70981;SDS011;58640;51.320;9.456;2022-07-31T13:35:06;2.40;;;2.03;;
70981;SDS011;58640;51.320;9.456;2022-07-31T13:37:32;2.58;;;1.48;;
70981;SDS011;58640;51.320;9.456;2022-07-31T13:39:57;3.90;;;1.38;;
70981;SDS011;58640;51.320;9.456;2022-07-31T13:42:23;2.20;;;1.60;;
70981;SDS011;58640;51.320;9.456;2022-07-31T13:44:48;1.40;;;1.30;;
70981;SDS011;58640;51.320;9.456;2022-07-31T13:47:14;5.25;;;1.67;;
70981;SDS011;58640;51.320;9.456;2022-07-31T13:49:39;3.22;;;1.55;;
70981;SDS011;58640;51.320;9.456;2022-07-31T13:52:04;1.70;;;1.40;;
70981;SDS011;58640;51.320;9.456;2022-07-31T13:54:30;2.95;;;1.77;;
70981;SDS011;58640;51.320;9.456;2022-07-31T13:56:55;1.85;;;1.73;;
70981;SDS011;58640;51.320;9.456;2022-07-31T13:59:21;40.30;;;4.22;;
70981;SDS011;58640;51.320;9.456;2022-07-31T14:01:46;8.48;;;1.52;;
70981;SDS011;58640;51.320;9.456;2022-07-31T14:04:15;7.50;;;1.90;;
70981;SDS011;58640;51.320;9.456;2022-07-31T14:06:44;5.15;;;2.00;;
70981;SDS011;58640;51.320;9.456;2022-07-31T14:09:10;5.20;;;1.73;;
70981;SDS011;58640;51.320;9.456;2022-07-31T14:11:35;2.28;;;1.65;;
70981;SDS011;58640;51.320;9.456;2022-07-31T14:14:00;2.53;;;1.70;;
70981;SDS011;58640;51.320;9.456;2022-07-31T14:16:26;5.13;;;1.77;;
70981;SDS011;58640;51.320;9.456;2022-07-31T14:18:51;1.85;;;1.40;;
70981;SDS011;58640;51.320;9.456;2022-07-31T14:21:17;2.53;;;1.58;;
70981;SDS011;58640;51.320;9.456;2022-07-31T14:23:42;1.83;;;1.52;;
70981;SDS011;58640;51.320;9.456;2022-07-31T14:26:08;1.60;;;1.50;;
70981;SDS011;58640;51.320;9.456;2022-07-31T14:28:34;1.98;;;1.65;;
70981;SDS011;58640;51.320;9.456;2022-07-31T14:30:59;2.55;;;2.05;;
70981;SDS011;58640;51.320;9.456;2022-07-31T14:33:25;1.90;;;1.50;;
70981;SDS011;58640;51.320;9.456;2022-07-31T14:35:53;1.83;;;1.63;;
70981;SDS011;58640;51.320;9.456;2022-07-31T14:38:18;2.35;;;1.60;;
70981;SDS011;58640;51.320;9.456;2022-07-31T14:40:43;6.43;;;1.60;;
70981;SDS011;58640;51.320;9.456;2022-07-31T14:43:09;2.65;;;1.90;;
70981;SDS011;58640;51.320;9.456;2022-07-31T14:45:35;2.70;;;1.52;;
70981;SDS011;58640;51.320;9.456;2022-07-31T14:48:01;3.55;;;1.38;;
70981;SDS011;58640;51.320;9.456;2022-07-31T14:50:26;3.22;;;1.65;;
70981;SDS011;58640;51.320;9.456;2022-07-31T14:52:52;2.33;;;1.63;;
70981;SDS011;58640;51.320;9.456;2022-07-31T14:55:17;5.68;;;1.88;;
70981;SDS011;58640;51.320;9.456;2022-07-31T14:57:43;3.22;;;1.27;;
70981;SDS011;58640;51.320;9.456;2022-07-31T15:00:09;1.92;;;1.70;;
70981;SDS011;58640;51.320;9.456;2022-07-31T15:02:39;3.55;;;1.75;;